KCSM/CSM METAR and TAF weather

Enter ICAO airport designator
Station Type Date Time Source
KCSM METAR 2021/04/12 03:53 UTC NOAA

KCSM 120353Z AUTO 04007KT 10SM CLR 14/06 A2974 RMK AO2 SLP056 T01440061 $


Station Type Date Time Source
KCSM Decoded METAR 2021/04/12 03:53 UTC NOAA

CLINTON-SHERMAN AIRPORT, OK, United States (KCSM) 35-21E 99-12W 588M
Apr 11, 2021 - 11:53 PM EDT / 2021.04.12 0353 UTC
Wind: from the NE (040 degrees) at 8 MPH (7 KT):0
Visibility: 10 mile(s):0
Sky conditions: clear
Temperature: 57.9 F (14.4 C)
Dew Point: 43.0 F (6.1 C)
Relative Humidity: 57%
Pressure (altimeter): 29.74 in. Hg (1007 hPa)
ob: KCSM 120353Z AUTO 04007KT 10SM CLR 14/06 A2974 RMK AO2 SLP056 T01440061
cycle: 4

Station Type Date Time Source
KCSM TAF 2021/04/11 18:21 UTC NOAA

TAF KCSM 111720Z 1118/1218 20018G26KT P6SM SKC
FM112000 28010G15KT P6SM FEW120
FM120200 05012G16KT P6SM SCT120
FM120400 04017G25KT P6SM FEW250

Example: see airport list